createdAt,value
2018-05-21T00:00:01.816Z,102494.13
2018-05-21T00:02:29.465Z,102490.85
2018-05-21T00:04:57.123Z,102492.41
2018-05-21T00:07:24.787Z,102481.00
2018-05-21T00:09:52.451Z,102483.42
2018-05-21T00:12:20.114Z,102477.70
2018-05-21T00:14:47.776Z,102479.75
2018-05-21T00:17:15.378Z,102474.87
2018-05-21T00:19:43.103Z,102476.02
2018-05-21T00:22:10.705Z,102481.01
2018-05-21T00:24:38.420Z,102477.87
2018-05-21T00:27:06.031Z,102479.45
2018-05-21T00:29:33.633Z,102481.00
2018-05-21T00:32:01.256Z,102481.75
2018-05-21T00:34:28.875Z,102482.91
2018-05-21T00:36:56.533Z,102479.30
2018-05-21T00:39:24.194Z,102482.56
2018-05-21T00:41:51.857Z,102483.22
2018-05-21T00:44:19.465Z,102490.95
2018-05-21T00:46:47.090Z,102492.59
2018-05-21T00:49:14.698Z,102495.94
2018-05-21T00:51:42.324Z,102490.64
2018-05-21T00:54:09.928Z,102491.83
2018-05-21T00:56:37.558Z,102499.55
2018-05-21T00:59:05.194Z,102500.77
2018-05-21T01:01:32.823Z,102500.30
2018-05-21T01:04:00.421Z,102500.21
2018-05-21T01:06:28.046Z,102498.80
2018-05-21T01:08:55.738Z,102494.78
2018-05-21T01:11:23.369Z,102503.38
2018-05-21T01:13:50.968Z,102496.73
2018-05-21T01:16:18.622Z,102496.27
2018-05-21T01:18:46.230Z,102498.74
2018-05-21T01:21:13.836Z,102496.59
2018-05-21T01:23:41.458Z,102487.92
2018-05-21T01:26:09.054Z,102494.75
2018-05-21T01:28:36.675Z,102493.78
2018-05-21T01:31:04.274Z,102493.23
2018-05-21T01:33:31.893Z,102487.94
2018-05-21T01:35:59.619Z,102491.77
2018-05-21T01:38:27.279Z,102494.27
2018-05-21T01:40:54.941Z,102489.50
2018-05-21T01:43:22.601Z,102489.83
2018-05-21T01:45:50.202Z,102491.54
2018-05-21T01:48:17.826Z,102488.42
2018-05-21T01:50:45.499Z,102484.08
2018-05-21T01:53:13.158Z,102484.87
2018-05-21T01:55:40.823Z,102481.04
2018-05-21T01:58:08.446Z,102483.24
2018-05-21T02:00:36.143Z,102486.72
2018-05-21T02:03:03.812Z,102483.75
2018-05-21T02:05:31.426Z,102482.89
2018-05-21T02:07:59.056Z,102485.42
2018-05-21T02:10:26.661Z,102477.54
2018-05-21T02:12:54.359Z,102477.09
2018-05-21T02:15:21.971Z,102472.33
2018-05-21T02:17:49.611Z,102470.95
2018-05-21T02:20:17.219Z,102466.07
2018-05-21T02:22:44.847Z,102465.58
2018-05-21T02:25:12.457Z,102465.49
2018-05-21T02:27:40.122Z,102461.08
2018-05-21T02:30:07.714Z,102461.88
2018-05-21T02:32:35.358Z,102454.47
2018-05-21T02:35:02.974Z,102456.97
2018-05-21T02:37:30.671Z,102452.59
2018-05-21T02:39:58.303Z,102454.63
2018-05-21T02:42:25.911Z,102456.28
2018-05-21T02:44:53.551Z,102456.69
2018-05-21T02:47:21.222Z,102454.54
2018-05-21T02:49:48.927Z,102454.98
2018-05-21T02:52:16.486Z,102458.86
2018-05-21T02:54:44.119Z,102464.48
2018-05-21T02:57:11.728Z,102464.10
2018-05-21T02:59:39.426Z,102461.45
2018-05-21T03:02:07.032Z,102462.72
2018-05-21T03:04:34.754Z,102456.22
2018-05-21T03:07:02.358Z,102454.52
2018-05-21T03:09:30.079Z,102458.39
2018-05-21T03:11:57.678Z,102460.98
2018-05-21T03:14:25.401Z,102458.37
2018-05-21T03:16:53.014Z,102457.08
2018-05-21T03:19:20.635Z,102454.86
2018-05-21T03:21:48.238Z,102455.72
2018-05-21T03:24:15.959Z,102458.75
2018-05-21T03:26:43.563Z,102456.59
2018-05-21T03:29:11.186Z,102459.66
2018-05-21T03:31:38.791Z,102457.45
2018-05-21T03:34:06.428Z,102452.66
2018-05-21T03:36:34.030Z,102460.45
2018-05-21T03:39:02.302Z,102462.62
2018-05-21T03:41:29.998Z,102455.37
2018-05-21T03:43:57.634Z,102461.86
2018-05-21T03:46:25.234Z,102462.33
2018-05-21T03:48:52.892Z,102464.59
2018-05-21T03:51:20.514Z,102465.95
2018-05-21T03:53:48.120Z,102465.13
2018-05-21T03:56:15.775Z,102465.67
2018-05-21T03:58:55.327Z,102465.72
2018-05-21T04:01:34.762Z,102467.00
2018-05-21T04:04:02.395Z,102464.00
2018-05-21T04:06:30.031Z,102458.44
2018-05-21T04:08:57.644Z,102462.27
2018-05-21T04:11:25.319Z,102463.35
2018-05-21T04:13:52.935Z,102466.10
2018-05-21T04:16:20.571Z,102463.18
2018-05-21T04:18:48.283Z,102464.00
2018-05-21T04:21:15.835Z,102463.11
2018-05-21T04:23:43.511Z,102464.41
2018-05-21T04:26:11.138Z,102462.43
2018-05-21T04:28:38.759Z,102468.62
2018-05-21T04:31:06.507Z,102457.13
2018-05-21T04:33:34.116Z,102465.93
2018-05-21T04:36:01.747Z,102467.94
2018-05-21T04:38:29.351Z,102461.66
2018-05-21T04:40:57.056Z,102464.78
2018-05-21T04:43:24.659Z,102468.78
2018-05-21T04:45:52.379Z,102465.48
2018-05-21T04:48:20.015Z,102462.72
2018-05-21T04:50:47.694Z,102467.91
2018-05-21T04:53:15.332Z,102463.50
2018-05-21T04:55:43.023Z,102462.98
2018-05-21T04:58:10.686Z,102459.05
2018-05-21T05:00:38.345Z,102458.56
2018-05-21T05:03:05.979Z,102460.80
2018-05-21T05:05:33.592Z,102455.67
2018-05-21T05:08:01.215Z,102461.44
2018-05-21T05:10:28.894Z,102457.59
2018-05-21T05:12:56.532Z,102455.97
2018-05-21T05:15:24.146Z,102451.77
2018-05-21T05:17:51.786Z,102450.59
2018-05-21T05:20:19.390Z,102451.18
2018-05-21T05:22:47.026Z,102454.39
2018-05-21T05:25:14.670Z,102455.78
2018-05-21T05:27:42.293Z,102461.56
2018-05-21T05:30:09.905Z,102459.49
2018-05-21T05:32:37.550Z,102457.06
2018-05-21T05:35:05.214Z,102452.91
2018-05-21T05:37:32.878Z,102456.19
2018-05-21T05:40:00.483Z,102457.27
2018-05-21T05:42:28.202Z,102457.89
2018-05-21T05:44:55.878Z,102455.98
2018-05-21T05:47:23.517Z,102456.30
2018-05-21T05:49:51.192Z,102457.05
2018-05-21T05:52:18.863Z,102450.50
2018-05-21T05:54:46.470Z,102444.36
2018-05-21T05:57:14.117Z,102451.32
2018-05-21T05:59:41.722Z,102450.47
2018-05-21T06:02:09.326Z,102453.97
2018-05-21T06:04:36.951Z,102450.47
2018-05-21T06:07:04.622Z,102447.82
2018-05-21T06:09:32.287Z,102449.05
2018-05-21T06:11:59.916Z,102447.79
2018-05-21T06:14:27.559Z,102447.80
2018-05-21T06:16:55.174Z,102444.27
2018-05-21T06:19:22.834Z,102448.53
2018-05-21T06:21:50.510Z,102445.34
2018-05-21T06:24:18.162Z,102444.75
2018-05-21T06:26:45.767Z,102446.73
2018-05-21T06:29:13.416Z,102454.42
2018-05-21T06:31:41.027Z,102453.72
2018-05-21T06:34:08.797Z,102453.02
2018-05-21T06:36:36.371Z,102448.40
2018-05-21T06:39:04.008Z,102447.68
2018-05-21T06:41:31.622Z,102447.79
2018-05-21T06:43:59.247Z,102440.52
2018-05-21T06:46:26.850Z,102435.44
2018-05-21T06:48:54.579Z,102432.58
2018-05-21T06:51:22.190Z,102439.31
2018-05-21T06:53:50.005Z,102437.31
2018-05-21T06:56:17.618Z,102431.30
2018-05-21T06:58:45.250Z,102434.14
2018-05-21T07:01:12.859Z,102433.00
2018-05-21T07:03:40.490Z,102423.56
2018-05-21T07:06:08.119Z,102430.28
2018-05-21T07:08:35.774Z,102431.39
2018-05-21T07:11:03.541Z,102432.89
2018-05-21T07:13:31.206Z,102433.05
2018-05-21T07:15:58.871Z,102429.22
2018-05-21T07:18:26.534Z,102421.97
2018-05-21T07:20:54.191Z,102422.17
2018-05-21T07:23:21.806Z,102415.30
2018-05-21T07:25:49.443Z,102410.20
2018-05-21T07:28:17.050Z,102406.02
2018-05-21T07:30:44.678Z,102403.50
2018-05-21T07:33:12.312Z,102397.50
2018-05-21T07:35:39.948Z,102393.70
2018-05-21T07:38:08.347Z,102387.66
2018-05-21T07:40:36.010Z,102379.92
2018-05-21T07:43:03.622Z,102384.41
2018-05-21T07:45:31.246Z,102384.06
2018-05-21T07:47:58.894Z,102387.69
2018-05-21T07:50:26.532Z,102378.13
2018-05-21T07:52:54.152Z,102378.64
2018-05-21T07:55:21.781Z,102378.73
2018-05-21T07:57:49.456Z,102378.78
2018-05-21T08:00:17.086Z,102370.92
2018-05-21T08:02:44.690Z,102372.25
2018-05-21T08:05:12.343Z,102367.05
2018-05-21T08:07:39.947Z,102362.67
2018-05-21T08:10:07.604Z,102364.49
2018-05-21T08:12:35.314Z,102367.16
2018-05-21T08:15:02.918Z,102368.51
2018-05-21T08:17:30.547Z,102372.91
2018-05-21T08:19:58.198Z,102369.42
2018-05-21T08:22:25.840Z,102372.06
2018-05-21T08:24:55.157Z,102366.78
2018-05-21T08:27:21.316Z,102368.55
2018-05-21T08:29:48.959Z,102367.66
2018-05-21T08:32:16.626Z,102364.58
2018-05-21T08:34:44.234Z,102365.94
2018-05-21T08:37:11.867Z,102357.14
2018-05-21T08:39:39.485Z,102357.12
2018-05-21T08:42:07.110Z,102350.07
2018-05-21T08:44:34.715Z,102352.23
2018-05-21T08:47:02.352Z,102337.25
2018-05-21T08:49:29.958Z,102340.77
2018-05-21T08:51:57.619Z,102340.73
2018-05-21T08:54:25.269Z,102332.36
2018-05-21T08:56:52.931Z,102334.96
2018-05-21T08:59:20.599Z,102330.09
2018-05-21T09:01:48.257Z,102329.59
2018-05-21T09:04:15.868Z,102332.58
2018-05-21T09:06:43.507Z,102325.03
2018-05-21T09:09:11.152Z,102322.34
2018-05-21T09:11:38.790Z,102319.20
2018-05-21T09:14:06.403Z,102322.22
2018-05-21T09:16:34.148Z,102325.70
2018-05-21T09:19:01.794Z,102309.83
2018-05-21T09:21:29.443Z,102314.24
2018-05-21T09:23:57.058Z,102309.41
2018-05-21T09:26:24.680Z,102301.91
2018-05-21T09:28:52.306Z,102301.01
2018-05-21T09:31:20.069Z,102299.22
2018-05-21T09:33:47.780Z,102291.70
2018-05-21T09:36:15.442Z,102297.36
2018-05-21T09:38:43.074Z,102287.59
2018-05-21T09:41:10.759Z,102284.41
2018-05-21T09:43:38.396Z,102271.58
2018-05-21T09:46:06.698Z,102277.18
2018-05-21T09:48:34.408Z,102262.52
2018-05-21T09:51:01.956Z,102262.83
2018-05-21T09:53:29.588Z,102260.97
2018-05-21T09:55:57.246Z,102258.25
2018-05-21T09:58:24.882Z,102260.37
2018-05-21T10:00:55.334Z,102262.86
2018-05-21T10:03:22.962Z,102259.64
2018-05-21T10:05:50.566Z,102255.98
2018-05-21T10:08:18.204Z,102253.23
2018-05-21T10:10:45.891Z,102246.12
2018-05-21T10:13:13.647Z,102235.52
2018-05-21T10:15:41.318Z,102238.12
2018-05-21T10:18:08.947Z,102229.65
2018-05-21T10:20:36.558Z,102230.50
2018-05-21T10:23:04.193Z,102227.79
2018-05-21T10:25:31.797Z,102217.55
2018-05-21T10:27:59.433Z,102220.15
2018-05-21T10:30:27.092Z,102218.81
2018-05-21T10:32:54.724Z,102214.44
2018-05-21T10:35:22.413Z,102204.27
2018-05-21T10:37:50.063Z,102193.61
2018-05-21T10:40:17.688Z,102205.88
2018-05-21T10:42:45.307Z,102190.30
2018-05-21T10:45:12.960Z,102182.27
2018-05-21T10:47:40.575Z,102186.58
2018-05-21T10:50:08.202Z,102195.80
2018-05-21T10:52:35.806Z,102182.91
2018-05-21T10:55:03.434Z,102186.80
2018-05-21T10:57:31.073Z,102175.59
2018-05-21T10:59:58.691Z,102177.23
2018-05-21T11:02:26.390Z,102174.86
2018-05-21T11:04:54.054Z,102173.41
2018-05-21T11:07:21.667Z,102160.95
2018-05-21T11:09:49.378Z,102159.61
2018-05-21T11:12:17.104Z,102160.50
2018-05-21T11:14:44.695Z,102153.41
2018-05-21T11:17:12.313Z,102148.94
2018-05-21T11:19:39.952Z,102155.57
2018-05-21T11:22:07.559Z,102154.25
2018-05-21T11:24:35.273Z,102150.22
2018-05-21T11:27:02.848Z,102150.66
2018-05-21T11:29:30.484Z,102145.30
2018-05-21T11:31:58.095Z,102140.87
2018-05-21T11:34:25.759Z,102135.03
2018-05-21T11:36:53.362Z,102126.23
2018-05-21T11:39:20.996Z,102117.30
2018-05-21T11:41:48.611Z,102111.05
2018-05-21T11:44:16.356Z,102120.68
2018-05-21T11:46:44.006Z,102109.62
2018-05-21T11:49:11.639Z,102111.31
2018-05-21T11:51:39.296Z,102111.70
2018-05-21T11:54:06.894Z,102099.24
2018-05-21T11:56:34.527Z,102111.06
2018-05-21T11:59:02.130Z,102099.47
2018-05-21T12:01:29.761Z,102091.44
2018-05-21T12:03:57.370Z,102095.37
2018-05-21T12:06:25.111Z,102083.34
2018-05-21T12:08:52.719Z,102086.42
2018-05-21T12:11:20.354Z,102080.25
2018-05-21T12:13:47.987Z,102070.12
2018-05-21T12:16:15.642Z,102073.17
2018-05-21T12:18:43.327Z,102066.02
2018-05-21T12:21:10.958Z,102065.98
2018-05-21T12:23:38.683Z,102055.27
2018-05-21T12:26:06.360Z,102046.24
2018-05-21T12:28:34.047Z,102056.73
2018-05-21T12:31:01.790Z,102046.92
2018-05-21T12:33:29.568Z,102044.64
2018-05-21T12:35:57.210Z,102043.28
2018-05-21T12:38:24.920Z,102033.47
2018-05-21T12:40:52.554Z,102044.03
2018-05-21T12:43:20.162Z,102035.98
2018-05-21T12:45:47.814Z,102024.86
2018-05-21T12:48:15.470Z,102026.97
2018-05-21T12:50:43.134Z,102010.88
2018-05-21T12:53:10.751Z,102012.92
2018-05-21T12:55:38.386Z,102016.33
2018-05-21T12:58:05.999Z,102010.42
2018-05-21T13:00:33.640Z,102008.54
2018-05-21T13:03:01.339Z,102007.58
2018-05-21T13:05:28.991Z,102000.91
2018-05-21T13:07:56.603Z,101999.08
2018-05-21T13:10:24.230Z,101985.27
2018-05-21T13:12:51.858Z,101990.05
2018-05-21T13:15:19.608Z,101984.98
2018-05-21T13:17:47.318Z,101992.05
2018-05-21T13:20:14.930Z,101983.71
2018-05-21T13:22:42.562Z,101978.89
2018-05-21T13:25:10.404Z,101970.61
2018-05-21T13:27:38.077Z,101969.91
2018-05-21T13:30:05.720Z,101975.81
2018-05-21T13:32:33.351Z,101969.72
2018-05-21T13:35:01.064Z,101964.11
2018-05-21T13:37:28.723Z,101959.04
2018-05-21T13:39:56.339Z,101966.02
2018-05-21T13:42:23.976Z,101959.09
2018-05-21T13:44:51.611Z,101967.81
2018-05-21T13:47:19.238Z,101957.86
2018-05-21T13:49:46.935Z,101948.69
2018-05-21T13:52:14.605Z,101943.45
2018-05-21T13:54:42.255Z,101938.79
2018-05-21T13:57:09.882Z,101946.38
2018-05-21T13:59:37.487Z,101945.48
2018-05-21T14:02:05.142Z,101942.51
2018-05-21T14:04:32.806Z,101950.55
2018-05-21T14:07:00.667Z,101944.92
2018-05-21T14:09:28.534Z,101937.05
2018-05-21T14:11:56.207Z,101924.81
2018-05-21T14:14:23.871Z,101923.41
2018-05-21T14:16:52.139Z,101931.05
2018-05-21T14:19:19.802Z,101918.69
2018-05-21T14:21:47.435Z,101921.86
2018-05-21T14:24:15.072Z,101920.56
2018-05-21T14:26:42.798Z,101918.69
2018-05-21T14:29:10.757Z,101916.38
2018-05-21T14:31:38.407Z,101917.56
2018-05-21T14:34:06.040Z,101916.61
2018-05-21T14:36:33.647Z,101909.60
2018-05-21T14:39:01.275Z,101918.45
2018-05-21T14:41:28.893Z,101909.22
2018-05-21T14:43:56.643Z,101907.06
2018-05-21T14:46:24.300Z,101914.15
2018-05-21T14:48:51.956Z,101901.88
2018-05-21T14:51:19.715Z,101897.63
2018-05-21T14:53:47.387Z,101905.64
2018-05-21T14:56:14.990Z,101889.41
2018-05-21T14:58:42.628Z,101895.25
2018-05-21T15:01:10.239Z,101892.70
2018-05-21T15:03:37.929Z,101889.34
2018-05-21T15:06:05.535Z,101888.68
2018-05-21T15:08:33.168Z,101880.91
2018-05-21T15:11:00.779Z,101877.05
2018-05-21T15:13:28.416Z,101881.56
2018-05-21T15:15:56.046Z,101878.09
2018-05-21T15:18:23.682Z,101879.09
2018-05-21T15:20:51.291Z,101882.27
2018-05-21T15:23:18.924Z,101879.66
2018-05-21T15:25:46.531Z,101870.05
2018-05-21T15:28:14.251Z,101889.58
2018-05-21T15:30:41.875Z,101876.84
2018-05-21T15:33:09.575Z,101866.80
2018-05-21T15:35:37.178Z,101870.81
2018-05-21T15:38:04.782Z,101864.77
2018-05-21T15:40:32.458Z,101867.00
2018-05-21T15:43:00.063Z,101864.83
2018-05-21T15:45:27.687Z,101862.64
2018-05-21T15:47:55.351Z,101861.75
2018-05-21T15:50:22.986Z,101864.78
2018-05-21T15:52:50.591Z,101849.40
2018-05-21T15:55:18.224Z,101851.66
2018-05-21T15:57:45.830Z,101861.02
2018-05-21T16:00:13.454Z,101855.31
2018-05-21T16:02:41.057Z,101851.87
2018-05-21T16:05:08.773Z,101848.83
2018-05-21T16:07:36.387Z,101846.73
2018-05-21T16:10:04.101Z,101849.44
2018-05-21T16:12:31.706Z,101847.75
2018-05-21T16:14:59.348Z,101846.45
2018-05-21T16:17:26.984Z,101850.45
2018-05-21T16:19:54.690Z,101853.97
2018-05-21T16:22:22.294Z,101840.79
2018-05-21T16:24:49.978Z,101843.77
2018-05-21T16:27:17.736Z,101841.32
2018-05-21T16:29:45.366Z,101834.77
2018-05-21T16:32:12.967Z,101833.36
2018-05-21T16:34:40.594Z,101824.42
2018-05-21T16:37:08.212Z,101828.25
2018-05-21T16:39:35.842Z,101820.16
2018-05-21T16:42:03.507Z,101828.47
2018-05-21T16:44:31.138Z,101821.73
2018-05-21T16:46:58.834Z,101839.33
2018-05-21T16:49:26.494Z,101832.81
2018-05-21T16:51:54.098Z,101823.76
2018-05-21T16:54:21.715Z,101826.13
2018-05-21T16:56:49.382Z,101829.05
2018-05-21T16:59:17.643Z,101837.95
2018-05-21T17:01:45.274Z,101836.65
2018-05-21T17:04:12.982Z,101838.94
2018-05-21T17:06:40.621Z,101836.87
2018-05-21T17:09:08.230Z,101834.78
2018-05-21T17:11:35.865Z,101834.94
2018-05-21T17:14:03.584Z,101832.88
2018-05-21T17:16:31.303Z,101835.35
2018-05-21T17:18:58.920Z,101838.25
2018-05-21T17:21:26.562Z,101831.48
2018-05-21T17:23:54.282Z,101831.27
2018-05-21T17:26:21.946Z,101832.30
2018-05-21T17:28:49.550Z,101832.54
2018-05-21T17:31:17.230Z,101824.92
2018-05-21T17:33:44.830Z,101826.97
2018-05-21T17:36:12.475Z,101822.47
2018-05-21T17:38:40.080Z,101822.31
2018-05-21T17:41:07.713Z,101823.93
2018-05-21T17:43:35.324Z,101819.65
2018-05-21T17:46:03.047Z,101819.80
2018-05-21T17:48:30.712Z,101813.64
2018-05-21T17:50:58.651Z,101813.16
2018-05-21T17:53:26.263Z,101819.21
2018-05-21T17:55:54.004Z,101819.13
2018-05-21T17:58:21.614Z,101814.13
2018-05-21T18:00:49.239Z,101812.14
2018-05-21T18:03:16.888Z,101813.20
2018-05-21T18:05:44.551Z,101815.55
2018-05-21T18:08:12.183Z,101815.68
2018-05-21T18:10:39.796Z,101812.26
2018-05-21T18:13:07.424Z,101806.63
2018-05-21T18:15:35.100Z,101810.67
2018-05-21T18:18:02.771Z,101804.61
2018-05-21T18:20:30.728Z,101808.20
2018-05-21T18:22:59.963Z,101806.06
2018-05-21T18:25:27.577Z,101799.53
2018-05-21T18:27:55.214Z,101809.69
2018-05-21T18:30:22.827Z,101807.13
2018-05-21T18:32:50.477Z,101811.56
2018-05-21T18:35:18.082Z,101804.55
2018-05-21T18:37:45.804Z,101809.00
2018-05-21T18:40:13.467Z,101808.16
2018-05-21T18:42:41.134Z,101813.48
2018-05-21T18:45:08.765Z,101806.05
2018-05-21T18:47:36.451Z,101806.06
2018-05-21T18:50:04.055Z,101804.77
2018-05-21T18:52:31.835Z,101803.92
2018-05-21T18:54:59.544Z,101800.88
2018-05-21T18:57:27.208Z,101799.57
2018-05-21T18:59:54.820Z,101801.36
2018-05-21T19:02:22.460Z,101792.16
2018-05-21T19:04:50.197Z,101802.70
2018-05-21T19:07:17.854Z,101797.42
2018-05-21T19:09:45.519Z,101795.70
2018-05-21T19:12:13.154Z,101799.19
2018-05-21T19:14:40.845Z,101795.27
2018-05-21T19:17:08.482Z,101797.03
2018-05-21T19:19:36.162Z,101799.23
2018-05-21T19:22:03.771Z,101793.98
2018-05-21T19:24:31.406Z,101800.11
2018-05-21T19:26:59.010Z,101798.78
2018-05-21T19:29:26.647Z,101795.72
2018-05-21T19:31:54.246Z,101793.95
2018-05-21T19:34:21.892Z,101797.44
2018-05-21T19:36:49.599Z,101800.09
2018-05-21T19:39:17.226Z,101801.41
2018-05-21T19:41:44.831Z,101793.93
2018-05-21T19:44:12.479Z,101796.08
2018-05-21T19:46:40.231Z,101793.89
2018-05-21T19:49:07.874Z,101795.63
2018-05-21T19:51:35.570Z,101791.66
2018-05-21T19:54:03.239Z,101783.36
2018-05-21T19:56:30.903Z,101787.70
2018-05-21T19:58:58.542Z,101792.05
2018-05-21T20:01:26.222Z,101791.16
2018-05-21T20:03:53.883Z,101785.05
2018-05-21T20:06:21.712Z,101785.45
2018-05-21T20:08:49.423Z,101787.64
2018-05-21T20:11:17.074Z,101787.19
2018-05-21T20:13:44.727Z,101786.77
2018-05-21T20:16:12.346Z,101784.12
2018-05-21T20:18:39.979Z,101785.42
2018-05-21T20:21:07.582Z,101788.45
2018-05-21T20:23:35.210Z,101784.95
2018-05-21T20:26:02.815Z,101785.83
2018-05-21T20:28:30.516Z,101778.81
2018-05-21T20:30:58.142Z,101777.45
2018-05-21T20:33:25.766Z,101777.88
2018-05-21T20:35:53.390Z,101779.59
2018-05-21T20:38:20.990Z,101775.65
2018-05-21T20:40:48.623Z,101776.06
2018-05-21T20:43:16.278Z,101776.44
2018-05-21T20:45:43.912Z,101774.20
2018-05-21T20:48:11.607Z,101771.55
2018-05-21T20:50:39.238Z,101774.55
2018-05-21T20:53:06.853Z,101774.92
2018-05-21T20:55:34.481Z,101771.41
2018-05-21T20:58:02.154Z,101767.44
2018-05-21T21:00:29.810Z,101770.02
2018-05-21T21:02:57.414Z,101772.59
2018-05-21T21:05:25.060Z,101765.58
2018-05-21T21:07:52.695Z,101771.20
2018-05-21T21:10:21.091Z,101762.88
2018-05-21T21:12:48.742Z,101761.11
2018-05-21T21:15:16.398Z,101763.69
2018-05-21T21:17:44.002Z,101759.72
2018-05-21T21:20:11.638Z,101762.72
2018-05-21T21:22:39.251Z,101760.06
2018-05-21T21:25:06.886Z,101758.68
2018-05-21T21:27:34.491Z,101761.69
2018-05-21T21:30:02.141Z,101759.92
2018-05-21T21:32:29.780Z,101759.37
2018-05-21T21:34:57.389Z,101759.33
2018-05-21T21:37:25.155Z,101763.62
2018-05-21T21:39:52.821Z,101756.58
2018-05-21T21:42:20.458Z,101753.03
2018-05-21T21:44:48.070Z,101751.67
2018-05-21T21:47:15.707Z,101752.92
2018-05-21T21:49:43.314Z,101759.86
2018-05-21T21:52:11.030Z,101757.62
2018-05-21T21:54:38.634Z,101755.83
2018-05-21T21:57:06.372Z,101756.20
2018-05-21T21:59:34.023Z,101754.00
2018-05-21T22:02:01.679Z,101752.19
2018-05-21T22:04:29.326Z,101750.81
2018-05-21T22:06:57.010Z,101750.78
2018-05-21T22:09:24.627Z,101741.17
2018-05-21T22:11:52.255Z,101745.94
2018-05-21T22:14:19.894Z,101744.16
2018-05-21T22:16:47.518Z,101739.34
2018-05-21T22:19:15.126Z,101741.88
2018-05-21T22:21:42.766Z,101741.85
2018-05-21T22:24:10.438Z,101746.14
2018-05-21T22:26:38.071Z,101738.67
2018-05-21T22:29:05.675Z,101738.16
2018-05-21T22:31:33.306Z,101744.19
2018-05-21T22:34:00.991Z,101740.63
2018-05-21T22:36:28.618Z,101736.14
2018-05-21T22:38:56.231Z,101734.33
2018-05-21T22:41:23.867Z,101735.99
2018-05-21T22:43:51.544Z,101735.05
2018-05-21T22:46:19.154Z,101732.83
2018-05-21T22:48:46.784Z,101730.15
2018-05-21T22:51:14.451Z,101729.67
2018-05-21T22:53:42.182Z,101729.16
2018-05-21T22:56:09.792Z,101728.25
2018-05-21T22:58:37.506Z,101732.05
2018-05-21T23:01:05.114Z,101721.53
2018-05-21T23:03:32.833Z,101724.92
2018-05-21T23:06:00.435Z,101721.36
2018-05-21T23:08:28.157Z,101718.20
2018-05-21T23:10:55.767Z,101715.51
2018-05-21T23:13:23.395Z,101715.89
2018-05-21T23:15:51.005Z,101720.16
2018-05-21T23:18:18.716Z,101714.90
2018-05-21T23:20:46.329Z,101713.55
2018-05-21T23:23:13.963Z,101709.12
2018-05-21T23:25:41.594Z,101714.25
2018-05-21T23:28:09.219Z,101708.98
2018-05-21T23:30:36.927Z,101713.23
2018-05-21T23:33:04.554Z,101710.58
2018-05-21T23:35:32.171Z,101718.31
2018-05-21T23:37:59.905Z,101712.56
2018-05-21T23:40:27.524Z,101715.08
2018-05-21T23:42:55.234Z,101713.20
2018-05-21T23:45:22.848Z,101710.03
2018-05-21T23:47:50.478Z,101709.94
2018-05-21T23:50:18.112Z,101708.58
2018-05-21T23:52:45.743Z,101711.09
2018-05-21T23:55:13.442Z,101706.27
2018-05-21T23:57:41.046Z,101702.75
